sensor_id;sensor_type;location;lat;lon;timestamp;temperature;humidity
46754;DHT22;32500;50.620;3.400;2023-10-31T00:00:29;18.50;79.90
46754;DHT22;32500;50.620;3.400;2023-10-31T00:02:55;18.50;80.10
46754;DHT22;32500;50.620;3.400;2023-10-31T00:05:20;18.50;80.20
46754;DHT22;32500;50.620;3.400;2023-10-31T00:07:46;18.50;80.10
46754;DHT22;32500;50.620;3.400;2023-10-31T00:10:11;18.50;80.20
46754;DHT22;32500;50.620;3.400;2023-10-31T00:12:37;18.50;80.10
46754;DHT22;32500;50.620;3.400;2023-10-31T00:15:04;18.40;79.80
46754;DHT22;32500;50.620;3.400;2023-10-31T00:17:29;18.40;79.90
46754;DHT22;32500;50.620;3.400;2023-10-31T00:19:55;18.50;80.10
46754;DHT22;32500;50.620;3.400;2023-10-31T00:22:21;18.40;80.10
46754;DHT22;32500;50.620;3.400;2023-10-31T00:24:47;18.40;80.20
46754;DHT22;32500;50.620;3.400;2023-10-31T00:27:12;18.40;80.10
46754;DHT22;32500;50.620;3.400;2023-10-31T00:29:39;18.40;80.20
46754;DHT22;32500;50.620;3.400;2023-10-31T00:32:05;18.30;80.20
46754;DHT22;32500;50.620;3.400;2023-10-31T00:34:31;18.30;80.10
46754;DHT22;32500;50.620;3.400;2023-10-31T00:36:56;18.30;80.10
46754;DHT22;32500;50.620;3.400;2023-10-31T00:39:22;18.30;80.00
46754;DHT22;32500;50.620;3.400;2023-10-31T00:41:47;18.40;80.10
46754;DHT22;32500;50.620;3.400;2023-10-31T00:44:13;18.30;80.10
46754;DHT22;32500;50.620;3.400;2023-10-31T00:46:39;18.30;80.10
46754;DHT22;32500;50.620;3.400;2023-10-31T00:49:04;18.30;80.20
46754;DHT22;32500;50.620;3.400;2023-10-31T00:51:30;18.30;80.00
46754;DHT22;32500;50.620;3.400;2023-10-31T00:53:55;18.30;80.10
46754;DHT22;32500;50.620;3.400;2023-10-31T00:56:21;18.30;80.10
46754;DHT22;32500;50.620;3.400;2023-10-31T00:58:46;18.30;80.00
46754;DHT22;32500;50.620;3.400;2023-10-31T01:01:12;18.30;79.90
46754;DHT22;32500;50.620;3.400;2023-10-31T01:03:37;18.30;80.00
46754;DHT22;32500;50.620;3.400;2023-10-31T01:06:03;18.30;80.00
46754;DHT22;32500;50.620;3.400;2023-10-31T01:08:29;18.30;80.00
46754;DHT22;32500;50.620;3.400;2023-10-31T01:10:55;18.30;80.00
46754;DHT22;32500;50.620;3.400;2023-10-31T01:13:20;18.20;79.90
46754;DHT22;32500;50.620;3.400;2023-10-31T01:15:46;18.20;80.00
46754;DHT22;32500;50.620;3.400;2023-10-31T01:18:11;18.20;80.00
46754;DHT22;32500;50.620;3.400;2023-10-31T01:20:37;18.20;80.00
46754;DHT22;32500;50.620;3.400;2023-10-31T01:23:03;18.20;80.00
46754;DHT22;32500;50.620;3.400;2023-10-31T01:25:29;18.20;80.00
46754;DHT22;32500;50.620;3.400;2023-10-31T01:27:54;18.20;80.00
46754;DHT22;32500;50.620;3.400;2023-10-31T01:30:20;18.20;80.00
46754;DHT22;32500;50.620;3.400;2023-10-31T01:32:45;18.20;80.00
46754;DHT22;32500;50.620;3.400;2023-10-31T01:35:11;18.10;80.00
46754;DHT22;32500;50.620;3.400;2023-10-31T01:37:36;18.10;80.50
46754;DHT22;32500;50.620;3.400;2023-10-31T01:40:02;18.10;80.00
46754;DHT22;32500;50.620;3.400;2023-10-31T01:42:29;18.10;80.00
46754;DHT22;32500;50.620;3.400;2023-10-31T01:44:54;18.10;80.00
46754;DHT22;32500;50.620;3.400;2023-10-31T01:47:20;18.10;80.00
46754;DHT22;32500;50.620;3.400;2023-10-31T01:49:46;18.10;80.00
46754;DHT22;32500;50.620;3.400;2023-10-31T01:52:17;18.10;80.00
46754;DHT22;32500;50.620;3.400;2023-10-31T01:54:43;18.00;80.00
46754;DHT22;32500;50.620;3.400;2023-10-31T01:57:09;18.00;80.00
46754;DHT22;32500;50.620;3.400;2023-10-31T01:59:34;18.00;80.00
46754;DHT22;32500;50.620;3.400;2023-10-31T02:02:00;18.00;80.00
46754;DHT22;32500;50.620;3.400;2023-10-31T02:04:26;18.00;80.00
46754;DHT22;32500;50.620;3.400;2023-10-31T02:06:51;18.00;80.00
46754;DHT22;32500;50.620;3.400;2023-10-31T02:09:17;18.00;80.00
46754;DHT22;32500;50.620;3.400;2023-10-31T02:11:42;18.00;80.10
46754;DHT22;32500;50.620;3.400;2023-10-31T02:14:08;18.00;80.10
46754;DHT22;32500;50.620;3.400;2023-10-31T02:16:33;18.00;80.20
46754;DHT22;32500;50.620;3.400;2023-10-31T02:18:59;17.90;80.10
46754;DHT22;32500;50.620;3.400;2023-10-31T02:21:25;17.90;79.90
46754;DHT22;32500;50.620;3.400;2023-10-31T02:23:57;17.90;80.00
46754;DHT22;32500;50.620;3.400;2023-10-31T02:26:22;17.90;79.90
46754;DHT22;32500;50.620;3.400;2023-10-31T02:28:48;17.90;80.00
46754;DHT22;32500;50.620;3.400;2023-10-31T02:31:13;17.90;80.00
46754;DHT22;32500;50.620;3.400;2023-10-31T02:33:39;17.90;80.00
46754;DHT22;32500;50.620;3.400;2023-10-31T02:36:04;17.90;80.00
46754;DHT22;32500;50.620;3.400;2023-10-31T02:38:30;17.80;80.00
46754;DHT22;32500;50.620;3.400;2023-10-31T02:40:55;17.80;80.00
46754;DHT22;32500;50.620;3.400;2023-10-31T02:43:21;17.80;80.00
46754;DHT22;32500;50.620;3.400;2023-10-31T02:45:46;17.80;80.10
46754;DHT22;32500;50.620;3.400;2023-10-31T02:48:12;17.80;80.00
46754;DHT22;32500;50.620;3.400;2023-10-31T02:50:37;17.80;80.00
46754;DHT22;32500;50.620;3.400;2023-10-31T02:53:03;17.80;80.00
46754;DHT22;32500;50.620;3.400;2023-10-31T02:55:28;17.80;80.00
46754;DHT22;32500;50.620;3.400;2023-10-31T02:57:54;17.80;79.90
46754;DHT22;32500;50.620;3.400;2023-10-31T03:00:19;17.80;79.90
46754;DHT22;32500;50.620;3.400;2023-10-31T03:02:45;17.80;79.90
46754;DHT22;32500;50.620;3.400;2023-10-31T03:05:10;17.80;79.90
46754;DHT22;32500;50.620;3.400;2023-10-31T03:07:36;17.80;79.90
46754;DHT22;32500;50.620;3.400;2023-10-31T03:10:02;17.80;80.00
46754;DHT22;32500;50.620;3.400;2023-10-31T03:12:27;17.70;79.80
46754;DHT22;32500;50.620;3.400;2023-10-31T03:14:53;17.70;79.80
46754;DHT22;32500;50.620;3.400;2023-10-31T03:17:19;17.70;79.80
46754;DHT22;32500;50.620;3.400;2023-10-31T03:19:44;17.70;79.80
46754;DHT22;32500;50.620;3.400;2023-10-31T03:22:10;17.70;79.90
46754;DHT22;32500;50.620;3.400;2023-10-31T03:24:36;17.70;80.00
46754;DHT22;32500;50.620;3.400;2023-10-31T03:27:01;17.70;80.00
46754;DHT22;32500;50.620;3.400;2023-10-31T03:29:27;17.70;80.00
46754;DHT22;32500;50.620;3.400;2023-10-31T03:31:52;17.70;80.00
46754;DHT22;32500;50.620;3.400;2023-10-31T03:34:18;17.60;79.90
46754;DHT22;32500;50.620;3.400;2023-10-31T03:36:43;17.60;79.90
46754;DHT22;32500;50.620;3.400;2023-10-31T03:39:09;17.60;79.80
46754;DHT22;32500;50.620;3.400;2023-10-31T03:41:35;17.60;79.90
46754;DHT22;32500;50.620;3.400;2023-10-31T03:44:00;17.60;79.90
46754;DHT22;32500;50.620;3.400;2023-10-31T03:46:26;17.60;80.00
46754;DHT22;32500;50.620;3.400;2023-10-31T03:48:52;17.60;79.90
46754;DHT22;32500;50.620;3.400;2023-10-31T03:51:17;17.60;79.90
46754;DHT22;32500;50.620;3.400;2023-10-31T03:53:43;17.60;79.80
46754;DHT22;32500;50.620;3.400;2023-10-31T03:56:08;17.50;79.80
46754;DHT22;32500;50.620;3.400;2023-10-31T03:58:34;17.50;79.80
46754;DHT22;32500;50.620;3.400;2023-10-31T04:00:59;17.50;79.90
46754;DHT22;32500;50.620;3.400;2023-10-31T04:03:25;17.50;79.90
46754;DHT22;32500;50.620;3.400;2023-10-31T04:05:56;17.50;79.90
46754;DHT22;32500;50.620;3.400;2023-10-31T04:08:21;17.50;79.80
46754;DHT22;32500;50.620;3.400;2023-10-31T04:10:47;17.50;79.80
46754;DHT22;32500;50.620;3.400;2023-10-31T04:13:12;17.50;79.90
46754;DHT22;32500;50.620;3.400;2023-10-31T04:15:38;17.50;79.90
46754;DHT22;32500;50.620;3.400;2023-10-31T04:18:03;17.50;79.90
46754;DHT22;32500;50.620;3.400;2023-10-31T04:20:29;17.40;79.80
46754;DHT22;32500;50.620;3.400;2023-10-31T04:22:54;17.50;79.90
46754;DHT22;32500;50.620;3.400;2023-10-31T04:25:20;17.50;79.80
46754;DHT22;32500;50.620;3.400;2023-10-31T04:27:45;17.40;79.80
46754;DHT22;32500;50.620;3.400;2023-10-31T04:30:11;17.40;79.80
46754;DHT22;32500;50.620;3.400;2023-10-31T04:32:37;17.40;79.70
46754;DHT22;32500;50.620;3.400;2023-10-31T04:35:02;17.50;79.80
46754;DHT22;32500;50.620;3.400;2023-10-31T04:37:28;17.50;79.60
46754;DHT22;32500;50.620;3.400;2023-10-31T04:39:53;17.50;79.60
46754;DHT22;32500;50.620;3.400;2023-10-31T04:42:19;17.40;79.70
46754;DHT22;32500;50.620;3.400;2023-10-31T04:44:45;17.40;79.70
46754;DHT22;32500;50.620;3.400;2023-10-31T04:47:11;17.40;79.80
46754;DHT22;32500;50.620;3.400;2023-10-31T04:49:36;17.40;79.70
46754;DHT22;32500;50.620;3.400;2023-10-31T04:52:02;17.40;79.70
46754;DHT22;32500;50.620;3.400;2023-10-31T04:54:27;17.40;79.70
46754;DHT22;32500;50.620;3.400;2023-10-31T04:56:53;17.40;79.80
46754;DHT22;32500;50.620;3.400;2023-10-31T04:59:18;17.40;79.70
46754;DHT22;32500;50.620;3.400;2023-10-31T05:01:50;17.40;79.70
46754;DHT22;32500;50.620;3.400;2023-10-31T05:04:16;17.40;79.80
46754;DHT22;32500;50.620;3.400;2023-10-31T05:06:42;17.40;79.80
46754;DHT22;32500;50.620;3.400;2023-10-31T05:09:07;17.40;79.80
46754;DHT22;32500;50.620;3.400;2023-10-31T05:11:33;17.40;79.90
46754;DHT22;32500;50.620;3.400;2023-10-31T05:13:58;17.40;79.80
46754;DHT22;32500;50.620;3.400;2023-10-31T05:16:24;17.40;79.90
46754;DHT22;32500;50.620;3.400;2023-10-31T05:18:50;17.40;79.70
46754;DHT22;32500;50.620;3.400;2023-10-31T05:21:18;17.40;79.80
46754;DHT22;32500;50.620;3.400;2023-10-31T05:23:44;17.30;80.40
46754;DHT22;32500;50.620;3.400;2023-10-31T05:26:09;17.30;79.90
46754;DHT22;32500;50.620;3.400;2023-10-31T05:28:35;17.30;79.70
46754;DHT22;32500;50.620;3.400;2023-10-31T05:31:00;17.30;79.70
46754;DHT22;32500;50.620;3.400;2023-10-31T05:33:26;17.30;79.80
46754;DHT22;32500;50.620;3.400;2023-10-31T05:35:51;17.30;79.80
46754;DHT22;32500;50.620;3.400;2023-10-31T05:38:17;17.30;79.90
46754;DHT22;32500;50.620;3.400;2023-10-31T05:40:42;17.30;79.90
46754;DHT22;32500;50.620;3.400;2023-10-31T05:43:08;17.30;79.80
46754;DHT22;32500;50.620;3.400;2023-10-31T05:45:33;17.30;79.70
46754;DHT22;32500;50.620;3.400;2023-10-31T05:47:59;17.30;79.70
46754;DHT22;32500;50.620;3.400;2023-10-31T05:50:24;17.30;79.80
46754;DHT22;32500;50.620;3.400;2023-10-31T05:52:50;17.30;79.60
46754;DHT22;32500;50.620;3.400;2023-10-31T05:55:15;17.30;79.70
46754;DHT22;32500;50.620;3.400;2023-10-31T05:57:41;17.30;79.60
46754;DHT22;32500;50.620;3.400;2023-10-31T06:00:07;17.30;79.60
46754;DHT22;32500;50.620;3.400;2023-10-31T06:02:33;17.20;79.50
46754;DHT22;32500;50.620;3.400;2023-10-31T06:04:59;17.20;79.50
46754;DHT22;32500;50.620;3.400;2023-10-31T06:07:24;17.20;79.60
46754;DHT22;32500;50.620;3.400;2023-10-31T06:09:50;17.20;79.50
46754;DHT22;32500;50.620;3.400;2023-10-31T06:12:15;17.20;79.50
46754;DHT22;32500;50.620;3.400;2023-10-31T06:14:41;17.20;79.50
46754;DHT22;32500;50.620;3.400;2023-10-31T06:17:07;17.20;79.40
46754;DHT22;32500;50.620;3.400;2023-10-31T06:19:36;17.20;79.50
46754;DHT22;32500;50.620;3.400;2023-10-31T06:22:01;17.20;79.30
46754;DHT22;32500;50.620;3.400;2023-10-31T06:24:27;17.20;79.30
46754;DHT22;32500;50.620;3.400;2023-10-31T06:26:52;17.20;79.30
46754;DHT22;32500;50.620;3.400;2023-10-31T06:29:18;17.20;79.30
46754;DHT22;32500;50.620;3.400;2023-10-31T06:31:43;17.20;79.40
46754;DHT22;32500;50.620;3.400;2023-10-31T06:34:09;17.20;79.40
46754;DHT22;32500;50.620;3.400;2023-10-31T06:36:34;17.20;79.40
46754;DHT22;32500;50.620;3.400;2023-10-31T06:39:00;17.20;79.40
46754;DHT22;32500;50.620;3.400;2023-10-31T06:41:25;17.20;79.40
46754;DHT22;32500;50.620;3.400;2023-10-31T06:43:51;17.20;79.30
46754;DHT22;32500;50.620;3.400;2023-10-31T06:46:17;17.20;79.30
46754;DHT22;32500;50.620;3.400;2023-10-31T06:48:42;17.20;79.40
46754;DHT22;32500;50.620;3.400;2023-10-31T06:51:08;17.20;79.40
46754;DHT22;32500;50.620;3.400;2023-10-31T06:53:34;17.20;79.30
46754;DHT22;32500;50.620;3.400;2023-10-31T06:55:59;17.20;79.30
46754;DHT22;32500;50.620;3.400;2023-10-31T06:58:25;17.20;79.20
46754;DHT22;32500;50.620;3.400;2023-10-31T07:00:51;17.20;79.20
46754;DHT22;32500;50.620;3.400;2023-10-31T07:03:17;17.20;79.20
46754;DHT22;32500;50.620;3.400;2023-10-31T07:05:42;17.20;79.20
46754;DHT22;32500;50.620;3.400;2023-10-31T07:08:08;17.20;79.10
46754;DHT22;32500;50.620;3.400;2023-10-31T07:10:33;17.20;79.10
46754;DHT22;32500;50.620;3.400;2023-10-31T07:12:59;17.20;79.10
46754;DHT22;32500;50.620;3.400;2023-10-31T07:15:25;17.20;79.20
46754;DHT22;32500;50.620;3.400;2023-10-31T07:17:50;17.20;79.10
46754;DHT22;32500;50.620;3.400;2023-10-31T07:20:16;17.20;79.00
46754;DHT22;32500;50.620;3.400;2023-10-31T07:22:42;17.20;79.00
46754;DHT22;32500;50.620;3.400;2023-10-31T07:25:08;17.20;78.90
46754;DHT22;32500;50.620;3.400;2023-10-31T07:27:33;17.20;79.00
46754;DHT22;32500;50.620;3.400;2023-10-31T07:29:59;17.20;79.00
46754;DHT22;32500;50.620;3.400;2023-10-31T07:32:24;17.20;78.90
46754;DHT22;32500;50.620;3.400;2023-10-31T07:34:51;17.20;78.80
46754;DHT22;32500;50.620;3.400;2023-10-31T07:37:16;17.20;78.90
46754;DHT22;32500;50.620;3.400;2023-10-31T07:39:42;17.20;79.50
46754;DHT22;32500;50.620;3.400;2023-10-31T07:42:07;17.20;78.80
46754;DHT22;32500;50.620;3.400;2023-10-31T07:44:33;17.20;78.70
46754;DHT22;32500;50.620;3.400;2023-10-31T07:46:58;17.20;78.80
46754;DHT22;32500;50.620;3.400;2023-10-31T07:49:24;17.20;78.70
46754;DHT22;32500;50.620;3.400;2023-10-31T07:51:49;17.20;78.70
46754;DHT22;32500;50.620;3.400;2023-10-31T07:54:15;17.20;78.80
46754;DHT22;32500;50.620;3.400;2023-10-31T07:56:41;17.20;79.00
46754;DHT22;32500;50.620;3.400;2023-10-31T07:59:07;17.20;79.00
46754;DHT22;32500;50.620;3.400;2023-10-31T08:01:36;17.20;78.90
46754;DHT22;32500;50.620;3.400;2023-10-31T08:04:02;17.20;78.90
46754;DHT22;32500;50.620;3.400;2023-10-31T08:06:27;17.20;78.80
46754;DHT22;32500;50.620;3.400;2023-10-31T08:08:53;17.20;78.90
46754;DHT22;32500;50.620;3.400;2023-10-31T08:11:18;17.20;78.90
46754;DHT22;32500;50.620;3.400;2023-10-31T08:13:44;17.20;78.80
46754;DHT22;32500;50.620;3.400;2023-10-31T08:16:09;17.20;78.90
46754;DHT22;32500;50.620;3.400;2023-10-31T08:18:35;17.20;78.80
46754;DHT22;32500;50.620;3.400;2023-10-31T08:21:00;17.20;78.90
46754;DHT22;32500;50.620;3.400;2023-10-31T08:23:28;17.30;79.00
46754;DHT22;32500;50.620;3.400;2023-10-31T08:25:54;17.30;79.00
46754;DHT22;32500;50.620;3.400;2023-10-31T08:28:19;17.20;78.80
46754;DHT22;32500;50.620;3.400;2023-10-31T08:30:45;17.30;78.90
46754;DHT22;32500;50.620;3.400;2023-10-31T08:33:11;17.30;79.10
46754;DHT22;32500;50.620;3.400;2023-10-31T08:35:36;17.30;79.10
46754;DHT22;32500;50.620;3.400;2023-10-31T08:38:03;17.20;79.00
46754;DHT22;32500;50.620;3.400;2023-10-31T08:40:28;17.20;79.00
46754;DHT22;32500;50.620;3.400;2023-10-31T08:42:54;17.30;79.00
46754;DHT22;32500;50.620;3.400;2023-10-31T08:45:20;17.20;79.00
46754;DHT22;32500;50.620;3.400;2023-10-31T08:47:45;17.20;79.20
46754;DHT22;32500;50.620;3.400;2023-10-31T08:50:11;17.20;79.30
46754;DHT22;32500;50.620;3.400;2023-10-31T08:52:37;17.20;79.30
46754;DHT22;32500;50.620;3.400;2023-10-31T08:55:03;17.20;79.50
46754;DHT22;32500;50.620;3.400;2023-10-31T08:57:29;17.30;79.70
46754;DHT22;32500;50.620;3.400;2023-10-31T08:59:55;17.20;79.70
46754;DHT22;32500;50.620;3.400;2023-10-31T09:02:20;17.20;80.50
46754;DHT22;32500;50.620;3.400;2023-10-31T09:04:46;17.20;80.60
46754;DHT22;32500;50.620;3.400;2023-10-31T09:07:11;17.20;80.70
46754;DHT22;32500;50.620;3.400;2023-10-31T09:09:37;17.20;80.70
46754;DHT22;32500;50.620;3.400;2023-10-31T09:12:02;17.20;80.60
46754;DHT22;32500;50.620;3.400;2023-10-31T09:14:28;17.20;80.60
46754;DHT22;32500;50.620;3.400;2023-10-31T09:16:53;17.30;80.90
46754;DHT22;32500;50.620;3.400;2023-10-31T09:19:19;17.30;80.70
46754;DHT22;32500;50.620;3.400;2023-10-31T09:21:44;17.30;80.50
46754;DHT22;32500;50.620;3.400;2023-10-31T09:24:10;17.30;80.60
46754;DHT22;32500;50.620;3.400;2023-10-31T09:26:36;17.30;80.50
46754;DHT22;32500;50.620;3.400;2023-10-31T09:29:02;17.30;80.40
46754;DHT22;32500;50.620;3.400;2023-10-31T09:31:28;17.30;80.50
46754;DHT22;32500;50.620;3.400;2023-10-31T09:33:54;17.30;80.40
46754;DHT22;32500;50.620;3.400;2023-10-31T09:36:19;17.30;80.50
46754;DHT22;32500;50.620;3.400;2023-10-31T09:38:45;17.30;80.30
46754;DHT22;32500;50.620;3.400;2023-10-31T09:41:12;17.30;80.50
46754;DHT22;32500;50.620;3.400;2023-10-31T09:43:37;17.30;80.30
46754;DHT22;32500;50.620;3.400;2023-10-31T09:46:03;17.30;80.40
46754;DHT22;32500;50.620;3.400;2023-10-31T09:48:28;17.40;80.60
46754;DHT22;32500;50.620;3.400;2023-10-31T09:50:54;17.40;80.30
46754;DHT22;32500;50.620;3.400;2023-10-31T09:53:20;17.30;80.50
46754;DHT22;32500;50.620;3.400;2023-10-31T09:55:46;17.30;80.50
46754;DHT22;32500;50.620;3.400;2023-10-31T09:58:12;17.30;80.70
46754;DHT22;32500;50.620;3.400;2023-10-31T10:00:37;17.30;80.80
46754;DHT22;32500;50.620;3.400;2023-10-31T10:03:08;17.30;80.70
46754;DHT22;32500;50.620;3.400;2023-10-31T10:05:36;17.30;80.60
46754;DHT22;32500;50.620;3.400;2023-10-31T10:08:05;17.30;80.70
46754;DHT22;32500;50.620;3.400;2023-10-31T10:10:30;17.30;80.50
46754;DHT22;32500;50.620;3.400;2023-10-31T10:12:57;17.30;80.50
46754;DHT22;32500;50.620;3.400;2023-10-31T10:15:24;17.40;80.70
46754;DHT22;32500;50.620;3.400;2023-10-31T10:17:49;17.40;80.70
46754;DHT22;32500;50.620;3.400;2023-10-31T10:20:15;17.40;80.80
46754;DHT22;32500;50.620;3.400;2023-10-31T10:22:41;17.40;80.80
46754;DHT22;32500;50.620;3.400;2023-10-31T10:25:13;17.40;80.90
46754;DHT22;32500;50.620;3.400;2023-10-31T10:27:41;17.40;81.00
46754;DHT22;32500;50.620;3.400;2023-10-31T10:30:09;17.40;81.00
46754;DHT22;32500;50.620;3.400;2023-10-31T10:32:35;17.30;81.00
46754;DHT22;32500;50.620;3.400;2023-10-31T10:35:00;17.40;81.20
46754;DHT22;32500;50.620;3.400;2023-10-31T10:37:26;17.40;81.30
46754;DHT22;32500;50.620;3.400;2023-10-31T10:39:52;17.40;81.30
46754;DHT22;32500;50.620;3.400;2023-10-31T10:42:27;17.40;81.10
46754;DHT22;32500;50.620;3.400;2023-10-31T10:44:55;17.40;81.20
46754;DHT22;32500;50.620;3.400;2023-10-31T10:47:23;17.40;81.10
46754;DHT22;32500;50.620;3.400;2023-10-31T10:49:50;17.40;81.10
46754;DHT22;32500;50.620;3.400;2023-10-31T10:52:28;17.40;81.00
46754;DHT22;32500;50.620;3.400;2023-10-31T10:54:58;17.40;81.20
46754;DHT22;32500;50.620;3.400;2023-10-31T10:58:08;17.40;81.20
46754;DHT22;32500;50.620;3.400;2023-10-31T11:00:14;17.40;81.10
46754;DHT22;32500;50.620;3.400;2023-10-31T11:02:40;17.40;81.20
46754;DHT22;32500;50.620;3.400;2023-10-31T11:05:08;17.40;81.50
46754;DHT22;32500;50.620;3.400;2023-10-31T11:07:33;17.40;81.30
46754;DHT22;32500;50.620;3.400;2023-10-31T11:09:59;17.40;81.30
46754;DHT22;32500;50.620;3.400;2023-10-31T11:12:29;17.40;81.30
46754;DHT22;32500;50.620;3.400;2023-10-31T11:14:55;17.40;81.20
46754;DHT22;32500;50.620;3.400;2023-10-31T11:17:23;17.40;81.10
46754;DHT22;32500;50.620;3.400;2023-10-31T11:19:49;17.50;81.00
46754;DHT22;32500;50.620;3.400;2023-10-31T11:22:15;17.50;81.00
46754;DHT22;32500;50.620;3.400;2023-10-31T11:24:43;17.50;80.90
46754;DHT22;32500;50.620;3.400;2023-10-31T11:27:08;17.50;80.90
46754;DHT22;32500;50.620;3.400;2023-10-31T11:29:35;17.50;80.90
46754;DHT22;32500;50.620;3.400;2023-10-31T11:32:01;17.50;80.90
46754;DHT22;32500;50.620;3.400;2023-10-31T11:34:26;17.50;80.90
46754;DHT22;32500;50.620;3.400;2023-10-31T11:36:52;17.50;80.80
46754;DHT22;32500;50.620;3.400;2023-10-31T11:39:18;17.50;80.90
46754;DHT22;32500;50.620;3.400;2023-10-31T11:41:49;17.50;80.90
46754;DHT22;32500;50.620;3.400;2023-10-31T11:44:15;17.50;80.90
46754;DHT22;32500;50.620;3.400;2023-10-31T11:46:41;17.50;80.90
46754;DHT22;32500;50.620;3.400;2023-10-31T11:49:07;17.50;80.90
46754;DHT22;32500;50.620;3.400;2023-10-31T11:51:32;17.50;80.90
46754;DHT22;32500;50.620;3.400;2023-10-31T11:54:01;17.50;80.90
46754;DHT22;32500;50.620;3.400;2023-10-31T11:56:27;17.60;80.80
46754;DHT22;32500;50.620;3.400;2023-10-31T11:58:56;17.60;80.70
46754;DHT22;32500;50.620;3.400;2023-10-31T12:01:22;17.60;81.30
46754;DHT22;32500;50.620;3.400;2023-10-31T12:03:47;17.70;81.30
46754;DHT22;32500;50.620;3.400;2023-10-31T12:06:14;17.70;81.60
46754;DHT22;32500;50.620;3.400;2023-10-31T12:08:41;17.70;81.90
46754;DHT22;32500;50.620;3.400;2023-10-31T12:11:07;17.80;82.10
46754;DHT22;32500;50.620;3.400;2023-10-31T12:13:34;17.80;81.80
46754;DHT22;32500;50.620;3.400;2023-10-31T12:15:59;17.80;81.90
46754;DHT22;32500;50.620;3.400;2023-10-31T12:18:28;17.80;81.80
46754;DHT22;32500;50.620;3.400;2023-10-31T12:20:55;17.80;81.60
46754;DHT22;32500;50.620;3.400;2023-10-31T12:23:20;17.80;81.40
46754;DHT22;32500;50.620;3.400;2023-10-31T12:25:47;17.80;81.50
46754;DHT22;32500;50.620;3.400;2023-10-31T12:28:16;17.80;82.10
46754;DHT22;32500;50.620;3.400;2023-10-31T12:30:45;17.80;81.80
46754;DHT22;32500;50.620;3.400;2023-10-31T12:33:14;17.80;81.60
46754;DHT22;32500;50.620;3.400;2023-10-31T12:35:40;17.80;81.40
46754;DHT22;32500;50.620;3.400;2023-10-31T12:38:06;17.90;81.50
46754;DHT22;32500;50.620;3.400;2023-10-31T12:40:32;17.90;81.70
46754;DHT22;32500;50.620;3.400;2023-10-31T12:42:58;17.90;81.40
46754;DHT22;32500;50.620;3.400;2023-10-31T12:45:24;17.90;81.90
46754;DHT22;32500;50.620;3.400;2023-10-31T12:48:08;17.90;82.60
46754;DHT22;32500;50.620;3.400;2023-10-31T12:50:35;17.90;82.90
46754;DHT22;32500;50.620;3.400;2023-10-31T12:53:03;17.90;83.10
46754;DHT22;32500;50.620;3.400;2023-10-31T12:55:29;17.90;83.30
46754;DHT22;32500;50.620;3.400;2023-10-31T12:57:55;17.90;83.10
46754;DHT22;32500;50.620;3.400;2023-10-31T13:00:21;17.90;83.10
46754;DHT22;32500;50.620;3.400;2023-10-31T13:02:58;17.90;83.10
46754;DHT22;32500;50.620;3.400;2023-10-31T13:05:25;17.90;83.10
46754;DHT22;32500;50.620;3.400;2023-10-31T13:07:51;17.90;83.00
46754;DHT22;32500;50.620;3.400;2023-10-31T13:10:20;17.90;82.90
46754;DHT22;32500;50.620;3.400;2023-10-31T13:12:46;17.90;82.80
46754;DHT22;32500;50.620;3.400;2023-10-31T13:15:15;17.90;82.90
46754;DHT22;32500;50.620;3.400;2023-10-31T13:17:41;17.90;82.90
46754;DHT22;32500;50.620;3.400;2023-10-31T13:20:09;17.90;82.90
46754;DHT22;32500;50.620;3.400;2023-10-31T13:22:35;17.90;82.90
46754;DHT22;32500;50.620;3.400;2023-10-31T13:25:07;17.90;82.90
46754;DHT22;32500;50.620;3.400;2023-10-31T13:27:35;17.90;82.80
46754;DHT22;32500;50.620;3.400;2023-10-31T13:30:01;18.00;82.90
46754;DHT22;32500;50.620;3.400;2023-10-31T13:32:26;18.00;82.70
46754;DHT22;32500;50.620;3.400;2023-10-31T13:34:52;18.00;82.60
46754;DHT22;32500;50.620;3.400;2023-10-31T13:37:17;18.00;82.60
46754;DHT22;32500;50.620;3.400;2023-10-31T13:39:43;18.00;82.60
46754;DHT22;32500;50.620;3.400;2023-10-31T13:42:08;18.00;82.40
46754;DHT22;32500;50.620;3.400;2023-10-31T13:44:36;18.00;82.30
46754;DHT22;32500;50.620;3.400;2023-10-31T13:47:01;18.00;82.20
46754;DHT22;32500;50.620;3.400;2023-10-31T13:49:27;18.00;82.20
46754;DHT22;32500;50.620;3.400;2023-10-31T13:51:53;18.00;82.10
46754;DHT22;32500;50.620;3.400;2023-10-31T13:54:18;18.00;82.20
46754;DHT22;32500;50.620;3.400;2023-10-31T13:56:45;18.00;82.10
46754;DHT22;32500;50.620;3.400;2023-10-31T13:59:11;18.00;82.00
46754;DHT22;32500;50.620;3.400;2023-10-31T14:01:36;18.00;82.00
46754;DHT22;32500;50.620;3.400;2023-10-31T14:04:02;18.00;81.90
46754;DHT22;32500;50.620;3.400;2023-10-31T14:06:27;18.00;81.90
46754;DHT22;32500;50.620;3.400;2023-10-31T14:08:55;18.00;81.90
46754;DHT22;32500;50.620;3.400;2023-10-31T14:11:21;18.00;81.90
46754;DHT22;32500;50.620;3.400;2023-10-31T14:13:47;18.00;81.70
46754;DHT22;32500;50.620;3.400;2023-10-31T14:16:13;17.90;81.60
46754;DHT22;32500;50.620;3.400;2023-10-31T14:18:38;18.00;81.80
46754;DHT22;32500;50.620;3.400;2023-10-31T14:21:04;18.00;81.70
46754;DHT22;32500;50.620;3.400;2023-10-31T14:23:30;17.90;81.60
46754;DHT22;32500;50.620;3.400;2023-10-31T14:25:56;17.90;81.60
46754;DHT22;32500;50.620;3.400;2023-10-31T14:28:21;17.90;81.60
46754;DHT22;32500;50.620;3.400;2023-10-31T14:30:47;17.90;81.50
46754;DHT22;32500;50.620;3.400;2023-10-31T14:33:12;17.90;81.50
46754;DHT22;32500;50.620;3.400;2023-10-31T14:35:39;17.90;81.50
46754;DHT22;32500;50.620;3.400;2023-10-31T14:38:04;17.90;81.50
46754;DHT22;32500;50.620;3.400;2023-10-31T14:40:30;17.80;81.40
46754;DHT22;32500;50.620;3.400;2023-10-31T14:42:55;17.90;81.40
46754;DHT22;32500;50.620;3.400;2023-10-31T14:45:21;17.90;81.50
46754;DHT22;32500;50.620;3.400;2023-10-31T14:47:46;17.90;81.50
46754;DHT22;32500;50.620;3.400;2023-10-31T14:50:12;17.90;81.30
46754;DHT22;32500;50.620;3.400;2023-10-31T14:52:37;17.90;81.40
46754;DHT22;32500;50.620;3.400;2023-10-31T14:55:03;17.90;81.30
46754;DHT22;32500;50.620;3.400;2023-10-31T14:57:29;17.90;81.20
46754;DHT22;32500;50.620;3.400;2023-10-31T14:59:54;17.90;81.10
46754;DHT22;32500;50.620;3.400;2023-10-31T15:02:22;17.90;81.10
46754;DHT22;32500;50.620;3.400;2023-10-31T15:04:48;17.90;81.20
46754;DHT22;32500;50.620;3.400;2023-10-31T15:07:13;17.90;81.40
46754;DHT22;32500;50.620;3.400;2023-10-31T15:09:39;17.90;81.50
46754;DHT22;32500;50.620;3.400;2023-10-31T15:12:04;17.90;81.50
46754;DHT22;32500;50.620;3.400;2023-10-31T15:14:30;17.90;81.50
46754;DHT22;32500;50.620;3.400;2023-10-31T15:16:55;18.00;81.70
46754;DHT22;32500;50.620;3.400;2023-10-31T15:19:21;18.00;81.70
46754;DHT22;32500;50.620;3.400;2023-10-31T15:21:46;18.00;81.90